CheckWX is a tool to help pilots better visualize weather data.  It is not intended as a substitute for an official pre-flight weather briefing.

14:48:27 UTC

KAPA TAF
Centennial Airport
Denver, Colorado, USA
KAPA 231334Z 2314/2412 12007KT P6SM BKN008 OVC090 TEMPO 2314/2315 SCT008 BKN090 FM231700 34010KT P6SM SCT060 SCT100 FM240300 22008KT P6SM FEW100 SCT250

Mar-23@
14:00 UTC

Mar-23 @ 14:00 UTC

Mar-23@
17:00 UTC

Mar-23 @ 17:00 UTC

KAPA 231334Z 2314/2412 12007KT P6SM BKN008 OVC090
Wind
  • 120° at 7 KTS
Cloud Levels
  • Broken at 800' AGL
  • Overcast at 9,000' AGL

Mar-23@
14:00 UTC

Mar-23 @ 14:00 UTC

Mar-23@
15:00 UTC

Mar-23 @ 15:00 UTC

TEMPO 2314/2315 SCT008 BKN090

Temporary

Temporary Changes expected for less than half the time period

Cloud Levels
  • Scattered at 800' AGL
  • Broken at 9,000' AGL

Mar-23@
17:00 UTC

Mar-23 @ 17:00 UTC

Mar-24@
03:00 UTC

Mar-24 @ 03:00 UTC

FM231700 34010KT P6SM SCT060 SCT100

From

From Standard forecast or significant change

Wind
  • 340° at 10 KTS
Cloud Levels
  • Scattered at 6,000' AGL
  • Scattered at 10,000' AGL

Mar-24@
03:00 UTC

Mar-24 @ 03:00 UTC

Mar-24@
12:00 UTC

Mar-24 @ 12:00 UTC

FM240300 22008KT P6SM FEW100 SCT250

From

From Standard forecast or significant change

Wind
  • 220° at 8 KTS
Cloud Levels
  • Few at 10,000' AGL
  • Scattered at 25,000' AGL